Midwest Blizzard!


#1

This has to be the scariest METAR I’ve ever seen

KMDW 020251Z COR 05031G50KT 1/16SM R31C/1200V2200FT +TSSN BLSN FZFG OVC001CB M06/M08 A2968 RMK AO2 PK WND 05050/0249 SLP065 OCNL LTGIC OHD TS OHD MOV N SNINCR 2/10 6//// T10611083 58072 PNO $


#2

I’ll see you the Winter Storm, and raise you Cyclone Yasi.

From Cairns, QLD (YBCS):

YBCS 030127Z AUTO 32012KT 3200 // SCT014 BKN022 OVC036 26/25 Q1004
YBCS 030110Z AUTO 35016KT 6000 // SCT023 BKN028 OVC036 27/25 Q1004
YBCS 030100Z AUTO 35017KT 9999 // SCT023 BKN036 OVC046 28/25 Q1004
YBCS 030052Z AUTO 35015G26KT 9999 // SCT023 BKN034 OVC046 28/24 Q1004
YBCS 030030Z AUTO 35013KT 8000 // SCT023 BKN032 OVC040 27/24 Q1004
YBCS 030000Z AUTO 34013KT 9999 // SCT024 BKN033 OVC052 27/24 Q1004
YBCS 022330Z AUTO 34016KT 9999 // SCT028 BKN054 OVC094 27/24 Q1003
YBCS 022324Z AUTO 34017KT 9999 // ////// 27/24 Q1003
YBCS 022313Z AUTO 34015G27KT 6000 // ////// 27/24 Q1003
YBCS 022308Z AUTO 35017G27KT 7000 // ////// 27/24 Q1003
YBCS 022300Z AUTO /////KT //// // ////// ///// Q////
YBCS 022240Z AUTO 35016G26KT 9999 // ////// 27/24 Q1002
YBCS 022239Z AUTO 35017KT 9999 // ////// 27/24 Q1002
YBCS 022235Z AUTO 35016G26KT 9999 // ////// 27/24 Q1002
YBCS 022230Z AUTO 35017KT 7000 // ////// 27/24 Q1002
YBCS 022229Z AUTO 35017KT 6000 // ////// 27/24 Q1002
YBCS 022220Z AUTO 35016G26KT //// // ////// 27/24 Q1002
YBCS 022214Z AUTO 34015KT //// // ////// 27/24 Q1002
YBCS 022200Z AUTO 32009KT //// // ////// 26/24 Q1001
YBCS 022130Z AUTO 35015G27KT //// // ////// 26/24 Q1000
YBCS 022129Z AUTO 35015G27KT //// // ////// 26/24 Q1000
YBCS 022100Z AUTO 31010KT //// // ////// 25/24 Q0999
YBCS 022030Z AUTO 32012KT //// // ////// 25/24 Q0998
YBCS 022000Z AUTO 33014KT //// // ////// 25/24 Q0997
YBCS 021949Z AUTO 33015G27KT //// // ////// 25/23 Q0997
YBCS 021930Z AUTO 33014KT //// // ////// 24/24 Q0996
YBCS 021900Z AUTO 33015G25KT //// // ////// 25/23 Q0995
YBCS 021831Z AUTO 34022G32KT //// // ////// 24/24 Q0993
YBCS 021800Z AUTO 34025G41KT //// // ////// 24/24 Q0992
YBCS 021730Z AUTO 34025G39KT //// // ////// 25/24 Q0991
YBCS 021700Z AUTO 34026G42KT //// // ////// 25/24 Q0989
YBCS 021630Z AUTO 34024G40KT //// // ////// 25/24 Q0987
YBCS 021600Z AUTO 33024G35KT //// // ////// 26/21 Q0986
YBCS 021530Z AUTO 33022G37KT //// // ////// 26/21 Q0984
YBCS 021500Z AUTO 32024G43KT //// // ////// 25/21 Q0983
YBCS 021443Z AUTO 32020G50KT //// // ////// 26/21 Q0983
YBCS 021430Z AUTO 32017G33KT //// // ////// 26/21 Q0983
YBCS 021400Z AUTO 30020G33KT //// // ////// 26/21 Q0983

doing the math for QNH to Altimeter, QNH of 0983 roughly comes out to an altimeter setting of 2903. You’ll note no weather conditions here, because none could be taken… and Cairns is a little bit north of the eye.

Better yet, Here is Townsville (YBTL):

YBTL 022122Z AUTO 06039G50KT 5000 // ////// 27/24 Q1001
YBTL 022100Z AUTO 07034G46KT //// // ////// 27/25 Q1001
YBTL 022030Z AUTO 06034G48KT //// // ////// 27/25 Q1000
YBTL 022015Z AUTO 07033G48KT //// // ////// 26/25 Q1000
YBTL 022014Z AUTO 07029G48KT //// // ////// 26/25 Q1000
YBTL 022000Z AUTO 06040G54KT //// // ////// 26/25 Q1000
YBTL 021952Z AUTO 07039G55KT //// // ////// 26/25 Q0999
YBTL 021932Z AUTO 07043G55KT //// // ////// 25/25 Q0997
YBTL 021930Z AUTO 07033G53KT //// // ////// 25/25 Q0997
YBTL 021928Z AUTO 07031G53KT //// // ////// 25/25 Q0997
YBTL 021900Z AUTO 08045G62KT //// // ////// 25/25 Q0997
YBTL 021830Z AUTO 08044G58KT //// // ////// 26/25 Q0996
YBTL 021800Z AUTO 08047G60KT //// // ////// 25/25 Q0995
YBTL 021730Z AUTO 09048G64KT //// // ////// 25/25 Q0994
YBTL 021700Z AUTO 08043G61KT //// // ////// 25/25 Q0994
YBTL 021652Z AUTO 09047G59KT //// // ////// 25/25 Q0994
YBTL 021630Z AUTO 09042G62KT //// // ////// 25/25 Q0993
YBTL 021600Z AUTO 10048G65KT //// // ////// 25/24 Q0993
YBTL 021530Z AUTO 09053G73KT //// // ////// 24/24 Q0993
YBTL 021528Z AUTO 09057G73KT //// // ////// 24/24 Q0993

YBTL 021523Z AUTO 10045G73KT //// // ////// 24/24 Q0993
YBTL 021500Z AUTO 09043G58KT //// // ////// 25/25 Q0994
YBTL 021430Z AUTO 09043G63KT //// // ////// 25/25 Q0994
YBTL 021400Z AUTO 11042G56KT //// // ////// 25/25 Q0993

Bold are the strongest winds.

BL.